createdAt,value
2022-10-18T03:53:16.269Z,101771.50
2022-10-18T03:56:18.569Z,101773.78
2022-10-18T03:59:20.601Z,101775.53
2022-10-18T04:02:23.049Z,101778.91
2022-10-18T04:05:27.808Z,101783.50
2022-10-18T04:08:30.446Z,101772.66
2022-10-18T04:11:33.442Z,101773.19
2022-10-18T04:14:35.598Z,101774.66
2022-10-18T04:17:37.905Z,101767.97
2022-10-18T04:20:39.941Z,101777.59
2022-10-18T04:23:42.539Z,101774.72
2022-10-18T04:26:44.597Z,101777.69
2022-10-18T04:29:46.888Z,101766.97
2022-10-18T04:32:48.918Z,101765.47
2022-10-18T04:35:52.858Z,101767.56
2022-10-18T04:38:54.993Z,101766.84
2022-10-18T04:41:57.306Z,101766.16
2022-10-18T04:44:59.338Z,101765.22
2022-10-18T04:48:01.684Z,101760.78
2022-10-18T04:51:03.846Z,101759.75
2022-10-18T04:54:06.592Z,101757.25
2022-10-18T04:57:08.640Z,101751.06
2022-10-18T05:00:11.519Z,101745.59
2022-10-18T05:03:14.547Z,101746.81
2022-10-18T05:06:16.846Z,101743.00
2022-10-18T05:09:18.932Z,101741.75
2022-10-18T05:12:22.229Z,101739.28
2022-10-18T05:15:24.422Z,101740.53
2022-10-18T05:18:26.897Z,101742.84
2022-10-18T05:21:28.970Z,101751.47
2022-10-18T05:24:31.320Z,101747.63
2022-10-18T05:27:33.387Z,101745.59
2022-10-18T05:30:39.440Z,101748.09
2022-10-18T05:33:41.469Z,101751.87
2022-10-18T05:36:43.885Z,101747.38
2022-10-18T05:39:45.921Z,101749.47
2022-10-18T05:42:51.728Z,101751.91
2022-10-18T05:45:53.793Z,101748.22
2022-10-18T05:48:56.148Z,101746.25
2022-10-18T05:51:58.166Z,101745.06
2022-10-18T05:55:00.515Z,101748.53
2022-10-18T05:58:04.036Z,101738.37
2022-10-18T06:01:07.046Z,101746.75
2022-10-18T06:04:10.312Z,101745.75
2022-10-18T06:07:12.931Z,101753.81
2022-10-18T06:10:15.360Z,101748.06
2022-10-18T06:13:17.379Z,101753.59
2022-10-18T06:16:22.027Z,101751.19
2022-10-18T06:19:24.113Z,101751.41
2022-10-18T06:22:26.456Z,101752.41
2022-10-18T06:25:28.477Z,101757.94
2022-10-18T06:28:31.303Z,101766.25
2022-10-18T06:31:33.435Z,101760.72
2022-10-18T06:34:35.808Z,101767.84
2022-10-18T06:37:38.222Z,101766.53
2022-10-18T06:40:40.566Z,101762.69
2022-10-18T06:43:43.728Z,101759.75
2022-10-18T06:46:47.184Z,101757.12
2022-10-18T06:49:49.213Z,101763.66
2022-10-18T06:52:54.372Z,101760.25
2022-10-18T06:56:08.217Z,101754.56
2022-10-18T06:59:10.550Z,101767.75
2022-10-18T07:02:16.133Z,101765.00
2022-10-18T07:05:18.724Z,101776.31
2022-10-18T07:08:20.758Z,101774.19
2022-10-18T07:11:26.158Z,101768.78
2022-10-18T07:14:29.262Z,101768.38
2022-10-18T07:17:32.006Z,101767.09
2022-10-18T07:20:34.129Z,101764.16
2022-10-18T07:23:38.490Z,101753.28
2022-10-18T07:26:42.344Z,101754.75
2022-10-18T07:29:44.650Z,101751.44
2022-10-18T07:32:46.722Z,101741.87
2022-10-18T07:35:49.048Z,101739.47
2022-10-18T07:38:54.388Z,101736.19
2022-10-18T07:41:57.519Z,101733.09
2022-10-18T07:44:59.536Z,101738.56
2022-10-18T07:48:01.866Z,101732.72
2022-10-18T07:51:04.776Z,101735.47
2022-10-18T07:54:07.068Z,101736.62
2022-10-18T07:57:09.093Z,101728.22
2022-10-18T08:00:11.863Z,101729.38
2022-10-18T08:03:13.790Z,101722.53
2022-10-18T08:06:18.744Z,101721.75
2022-10-18T08:09:20.870Z,101720.00
2022-10-18T08:12:23.186Z,101718.41
2022-10-18T08:15:25.649Z,101706.22
2022-10-18T08:19:52.884Z,101698.13
2022-10-18T08:23:05.916Z,101698.13
2022-10-18T08:26:13.545Z,101705.22
2022-10-18T08:29:26.840Z,101694.78
2022-10-18T08:32:31.630Z,101687.47
2022-10-18T08:35:34.167Z,101680.72
2022-10-18T08:38:47.472Z,101683.66
2022-10-18T08:41:55.933Z,101671.34
2022-10-18T08:44:58.172Z,101663.50
2022-10-18T08:48:01.470Z,101667.81
2022-10-18T08:51:09.970Z,101668.72
2022-10-18T08:54:16.984Z,101664.41
2022-10-18T08:57:20.135Z,101659.25
2022-10-18T09:00:25.449Z,101657.78
2022-10-18T09:03:49.457Z,101642.88
2022-10-18T09:07:10.043Z,101652.62
2022-10-18T09:10:46.394Z,101650.19
2022-10-18T09:14:24.558Z,101643.34
2022-10-18T09:17:50.267Z,101633.00
2022-10-18T09:20:59.664Z,101635.69
2022-10-18T09:24:12.525Z,101625.38
2022-10-18T09:27:17.584Z,101619.34
2022-10-18T09:30:40.815Z,101618.50
2022-10-18T09:33:54.481Z,101623.91
2022-10-18T09:36:57.148Z,101616.94
2022-10-18T09:40:23.142Z,101617.00
2022-10-18T09:43:48.713Z,101608.25
2022-10-18T09:46:57.711Z,101607.53
2022-10-18T09:50:06.199Z,101605.91
2022-10-18T09:53:17.054Z,101594.50
2022-10-18T09:56:23.852Z,101587.47
2022-10-18T09:59:49.386Z,101585.91
2022-10-18T10:02:51.471Z,101585.13
2022-10-18T10:06:17.455Z,101585.13
2022-10-18T10:09:26.625Z,101579.06
2022-10-18T10:12:37.812Z,101566.81
2022-10-18T10:15:42.567Z,101566.06
2022-10-18T10:18:53.746Z,101555.47
2022-10-18T10:22:12.210Z,101559.00
2022-10-18T10:25:31.384Z,101541.44
2022-10-18T10:28:43.625Z,101545.84
2022-10-18T10:31:46.067Z,101544.06
2022-10-18T10:34:48.661Z,101536.16
2022-10-18T10:37:53.323Z,101531.75
2022-10-18T10:40:56.067Z,101522.97
2022-10-18T10:43:59.252Z,101523.00
2022-10-18T10:47:01.633Z,101518.66
2022-10-18T10:50:12.252Z,101514.25
2022-10-18T10:53:36.809Z,101510.72
2022-10-18T10:57:01.986Z,101510.72
2022-10-18T11:00:04.472Z,101504.56
2022-10-18T11:03:30.979Z,101494.87
2022-10-18T11:06:43.334Z,101502.81
2022-10-18T11:09:50.470Z,101488.72
2022-10-18T11:13:05.138Z,101479.94
2022-10-18T11:16:16.493Z,101471.09
2022-10-18T11:19:40.507Z,101479.94
2022-10-18T11:23:02.366Z,101473.78
2022-10-18T11:26:07.395Z,101467.56
2022-10-18T11:29:27.805Z,101466.69
2022-10-18T11:33:06.682Z,101461.41
2022-10-18T11:36:36.974Z,101450.81
2022-10-18T11:39:51.179Z,101449.91
2022-10-18T11:43:15.979Z,101438.44
2022-10-18T11:46:43.716Z,101433.16
2022-10-18T11:50:07.977Z,101434.91
2022-10-18T11:53:09.905Z,101426.09
2022-10-18T11:56:51.276Z,101419.91
2022-10-18T12:03:44.929Z,101405.75
2022-10-18T12:06:50.777Z,101400.41
2022-10-18T12:09:55.155Z,101399.50
2022-10-18T12:13:02.119Z,101389.78
2022-10-18T12:16:06.830Z,101384.50
2022-10-18T12:19:25.323Z,101384.56
2022-10-18T12:22:38.364Z,101381.94
2022-10-18T12:25:46.520Z,101367.78
2022-10-18T12:29:20.287Z,101366.00
2022-10-18T12:32:29.300Z,101367.75
2022-10-18T12:35:46.467Z,101356.28
2022-10-18T12:38:58.028Z,101360.62
2022-10-18T12:42:00.763Z,101343.81
2022-10-18T12:45:14.889Z,101345.53
2022-10-18T12:48:32.178Z,101336.72
2022-10-18T12:51:34.563Z,101335.91
2022-10-18T12:54:39.484Z,101331.47
2022-10-18T12:57:54.913Z,101325.31
2022-10-18T13:01:07.286Z,101312.03
2022-10-18T13:04:29.757Z,101313.81
2022-10-18T13:07:40.750Z,101314.72
2022-10-18T13:10:44.389Z,101307.63
2022-10-18T13:13:52.566Z,101298.72
2022-10-18T13:17:12.410Z,101297.81
2022-10-18T13:20:40.625Z,101290.75
2022-10-18T13:24:12.180Z,101286.41
2022-10-18T13:27:38.211Z,101296.16
2022-10-18T13:30:46.410Z,101290.87
2022-10-18T13:33:49.384Z,101290.00
2022-10-18T13:37:03.653Z,101288.16
2022-10-18T13:40:23.999Z,101290.78
2022-10-18T13:44:04.613Z,101288.09
2022-10-18T13:47:06.951Z,101289.94
2022-10-18T13:50:29.838Z,101295.19
2022-10-18T13:53:48.562Z,101284.59
2022-10-18T13:57:11.653Z,101274.06
2022-10-18T14:00:49.206Z,101278.53
2022-10-18T14:04:14.702Z,101274.09
2022-10-18T14:07:19.108Z,101270.63
2022-10-18T14:10:50.252Z,101268.88
2022-10-18T14:14:02.781Z,101257.41
2022-10-18T14:17:15.420Z,101255.69
2022-10-18T14:20:30.173Z,101249.50
2022-10-18T14:23:36.551Z,101246.00
2022-10-18T14:29:41.941Z,101247.78
2022-10-18T14:32:49.870Z,101249.59
2022-10-18T14:36:02.666Z,101241.66
2022-10-18T14:39:06.685Z,101249.59
2022-10-18T14:42:20.246Z,101244.31
2022-10-18T14:45:23.805Z,101245.25
2022-10-18T14:48:26.098Z,101231.13
2022-10-18T14:51:32.645Z,101228.53
2022-10-18T14:54:37.713Z,101227.66
2022-10-18T14:57:39.861Z,101213.53
2022-10-18T15:00:43.966Z,101217.97
2022-10-18T15:03:50.106Z,101213.59
2022-10-18T15:06:52.408Z,101212.69
2022-10-18T15:09:57.686Z,101212.69
2022-10-18T15:13:09.797Z,101210.94
2022-10-18T15:16:19.605Z,101206.53
2022-10-18T15:19:21.816Z,101216.25
2022-10-18T15:22:33.379Z,101206.56
2022-10-18T15:25:35.928Z,101203.91
2022-10-18T15:28:52.047Z,101203.88
2022-10-18T15:31:54.849Z,101197.75
2022-10-18T15:35:17.970Z,101204.78
2022-10-18T15:38:27.811Z,101203.88
2022-10-18T15:41:48.971Z,101207.38
